<?xml version="1.0" encoding="UTF-8" standalone="no" ?>
<gpx xmlns="http://www.topografix.com/GPX/1/1" xmlns:xsi="http://www.w3.org/2001/XMLSchema-instance" xsi:schemaLocation="http://www.topografix.com/GPX/1/1 http://www.topografix.com/GPX/1/1/gpx.xsd" version="1.1" creator="VisuGPX - https://www.visugpx.com">
  <metadata>
    <name>Le Quesnoy 151015</name>
    <desc><![CDATA[Le Quesnoy 151015]]></desc>
  </metadata>
  <trk>
    <name><![CDATA[LE QUESNOY4:59 PM]]></name>
    <trkseg>
      <trkpt lat="50.25017" lon="3.64508">
        <ele>120.3</ele>
        <time>2014-12-11T08:25:34Z</time>
      </trkpt>
      <trkpt lat="50.24963" lon="3.64631">
        <ele>126.07</ele>
        <time>2014-12-11T08:33:07Z</time>
      </trkpt>
      <trkpt lat="50.24914" lon="3.64746">
        <ele>127.03</ele>
        <time>2014-12-11T08:34:26Z</time>
      </trkpt>
      <trkpt lat="50.24855" lon="3.64853">
        <ele>117.9</ele>
        <time>2014-12-11T08:35:48Z</time>
      </trkpt>
      <trkpt lat="50.24785" lon="3.6495">
        <ele>130.88</ele>
        <time>2014-12-11T08:37:09Z</time>
      </trkpt>
      <trkpt lat="50.2471" lon="3.6505">
        <ele>137.13</ele>
        <time>2014-12-11T08:38:31Z</time>
      </trkpt>
      <trkpt lat="50.24627" lon="3.65149">
        <ele>129.92</ele>
        <time>2014-12-11T08:39:56Z</time>
      </trkpt>
      <trkpt lat="50.24552" lon="3.6524">
        <ele>131.36</ele>
        <time>2014-12-11T08:41:21Z</time>
      </trkpt>
      <trkpt lat="50.24508" lon="3.65355">
        <ele>127.99</ele>
        <time>2014-12-11T08:42:45Z</time>
      </trkpt>
      <trkpt lat="50.24575" lon="3.65447">
        <ele>130.88</ele>
        <time>2014-12-11T08:43:57Z</time>
      </trkpt>
      <trkpt lat="50.24636" lon="3.65517">
        <ele>132.32</ele>
        <time>2014-12-11T08:45:00Z</time>
      </trkpt>
      <trkpt lat="50.24713" lon="3.65608">
        <ele>132.32</ele>
        <time>2014-12-11T08:46:29Z</time>
      </trkpt>
      <trkpt lat="50.24776" lon="3.65713">
        <ele>126.55</ele>
        <time>2014-12-11T08:47:54Z</time>
      </trkpt>
      <trkpt lat="50.24864" lon="3.65798">
        <ele>121.74</ele>
        <time>2014-12-11T08:49:30Z</time>
      </trkpt>
      <trkpt lat="50.24944" lon="3.65867">
        <ele>120.78</ele>
        <time>2014-12-11T08:50:58Z</time>
      </trkpt>
      <trkpt lat="50.25025" lon="3.65946">
        <ele>115.98</ele>
        <time>2014-12-11T08:52:21Z</time>
      </trkpt>
      <trkpt lat="50.25112" lon="3.66012">
        <ele>115.5</ele>
        <time>2014-12-11T08:53:57Z</time>
      </trkpt>
      <trkpt lat="50.25173" lon="3.65948">
        <ele>111.65</ele>
        <time>2014-12-11T08:55:11Z</time>
      </trkpt>
      <trkpt lat="50.25222" lon="3.65855">
        <ele>105.88</ele>
        <time>2014-12-11T08:56:19Z</time>
      </trkpt>
      <trkpt lat="50.25262" lon="3.65741">
        <ele>109.73</ele>
        <time>2014-12-11T08:57:39Z</time>
      </trkpt>
      <trkpt lat="50.25329" lon="3.65596">
        <ele>108.77</ele>
        <time>2014-12-11T08:59:29Z</time>
      </trkpt>
      <trkpt lat="50.25359" lon="3.65436">
        <ele>112.61</ele>
        <time>2014-12-11T09:01:06Z</time>
      </trkpt>
      <trkpt lat="50.25334" lon="3.65262">
        <ele>107.32</ele>
        <time>2014-12-11T09:03:55Z</time>
      </trkpt>
      <trkpt lat="50.25317" lon="3.65094">
        <ele>98.67</ele>
        <time>2014-12-11T09:05:51Z</time>
      </trkpt>
      <trkpt lat="50.25305" lon="3.64917">
        <ele>109.25</ele>
        <time>2014-12-11T09:07:46Z</time>
      </trkpt>
      <trkpt lat="50.253" lon="3.64748">
        <ele>112.13</ele>
        <time>2014-12-11T09:09:33Z</time>
      </trkpt>
      <trkpt lat="50.25302" lon="3.64593">
        <ele>117.9</ele>
        <time>2014-12-11T09:11:19Z</time>
      </trkpt>
      <trkpt lat="50.25306" lon="3.64452">
        <ele>120.78</ele>
        <time>2014-12-11T09:12:52Z</time>
      </trkpt>
      <trkpt lat="50.25359" lon="3.64339">
        <ele>125.11</ele>
        <time>2014-12-11T09:14:21Z</time>
      </trkpt>
      <trkpt lat="50.25298" lon="3.6425">
        <ele>126.07</ele>
        <time>2014-12-11T09:15:59Z</time>
      </trkpt>
      <trkpt lat="50.25216" lon="3.64178">
        <ele>125.11</ele>
        <time>2014-12-11T09:17:31Z</time>
      </trkpt>
      <trkpt lat="50.25163" lon="3.64082">
        <ele>125.59</ele>
        <time>2014-12-11T09:19:04Z</time>
      </trkpt>
      <trkpt lat="50.252" lon="3.63947">
        <ele>119.34</ele>
        <time>2014-12-11T09:20:32Z</time>
      </trkpt>
      <trkpt lat="50.25243" lon="3.63819">
        <ele>116.94</ele>
        <time>2014-12-11T09:22:00Z</time>
      </trkpt>
      <trkpt lat="50.25179" lon="3.63715">
        <ele>111.65</ele>
        <time>2014-12-11T09:23:44Z</time>
      </trkpt>
      <trkpt lat="50.25156" lon="3.63845">
        <ele>115.5</ele>
        <time>2014-12-11T09:25:35Z</time>
      </trkpt>
      <trkpt lat="50.25093" lon="3.63934">
        <ele>115.01</ele>
        <time>2014-12-11T09:27:33Z</time>
      </trkpt>
      <trkpt lat="50.2505" lon="3.64049">
        <ele>121.26</ele>
        <time>2014-12-11T09:29:15Z</time>
      </trkpt>
      <trkpt lat="50.25039" lon="3.64194">
        <ele>118.38</ele>
        <time>2014-12-11T09:30:58Z</time>
      </trkpt>
      <trkpt lat="50.24947" lon="3.64181">
        <ele>123.19</ele>
        <time>2014-12-11T09:32:51Z</time>
      </trkpt>
      <trkpt lat="50.24856" lon="3.64226">
        <ele>121.74</ele>
        <time>2014-12-11T09:38:45Z</time>
      </trkpt>
      <trkpt lat="50.24785" lon="3.64326">
        <ele>110.21</ele>
        <time>2014-12-11T09:40:54Z</time>
      </trkpt>
      <trkpt lat="50.24729" lon="3.64333">
        <ele>123.19</ele>
        <time>2014-12-11T09:44:22Z</time>
      </trkpt>
      <trkpt lat="50.24629" lon="3.64356">
        <ele>122.71</ele>
        <time>2014-12-11T09:46:25Z</time>
      </trkpt>
      <trkpt lat="50.24572" lon="3.64247">
        <ele>125.11</ele>
        <time>2014-12-11T09:48:13Z</time>
      </trkpt>
      <trkpt lat="50.24534" lon="3.64123">
        <ele>122.71</ele>
        <time>2014-12-11T09:49:57Z</time>
      </trkpt>
      <trkpt lat="50.24482" lon="3.63996">
        <ele>118.38</ele>
        <time>2014-12-11T09:52:55Z</time>
      </trkpt>
      <trkpt lat="50.2446" lon="3.63873">
        <ele>116.94</ele>
        <time>2014-12-11T09:54:39Z</time>
      </trkpt>
      <trkpt lat="50.24466" lon="3.63709">
        <ele>117.42</ele>
        <time>2014-12-11T09:56:35Z</time>
      </trkpt>
      <trkpt lat="50.24471" lon="3.63543">
        <ele>116.46</ele>
        <time>2014-12-11T09:58:24Z</time>
      </trkpt>
      <trkpt lat="50.24474" lon="3.63387">
        <ele>114.53</ele>
        <time>2014-12-11T10:03:17Z</time>
      </trkpt>
      <trkpt lat="50.24459" lon="3.6322">
        <ele>118.86</ele>
        <time>2014-12-11T10:05:39Z</time>
      </trkpt>
      <trkpt lat="50.24453" lon="3.63166">
        <ele>113.57</ele>
        <time>2014-12-11T10:17:20Z</time>
      </trkpt>
      <trkpt lat="50.24554" lon="3.63134">
        <ele>117.9</ele>
        <time>2014-12-11T10:20:12Z</time>
      </trkpt>
      <trkpt lat="50.24641" lon="3.63141">
        <ele>116.94</ele>
        <time>2014-12-11T10:23:46Z</time>
      </trkpt>
      <trkpt lat="50.24651" lon="3.63251">
        <ele>122.71</ele>
        <time>2014-12-11T10:28:53Z</time>
      </trkpt>
      <trkpt lat="50.2458" lon="3.63321">
        <ele>122.71</ele>
        <time>2014-12-11T10:30:55Z</time>
      </trkpt>
      <trkpt lat="50.24547" lon="3.63221">
        <ele>125.11</ele>
        <time>2014-12-11T10:32:57Z</time>
      </trkpt>
      <trkpt lat="50.24642" lon="3.63161">
        <ele>116.94</ele>
        <time>2014-12-11T10:35:33Z</time>
      </trkpt>
      <trkpt lat="50.24715" lon="3.63027">
        <ele>119.34</ele>
        <time>2014-12-11T10:37:19Z</time>
      </trkpt>
      <trkpt lat="50.24809" lon="3.63011">
        <ele>121.26</ele>
        <time>2014-12-11T10:39:27Z</time>
      </trkpt>
      <trkpt lat="50.24856" lon="3.63153">
        <ele>117.9</ele>
        <time>2014-12-11T10:41:08Z</time>
      </trkpt>
      <trkpt lat="50.24821" lon="3.63269">
        <ele>114.53</ele>
        <time>2014-12-11T10:43:59Z</time>
      </trkpt>
      <trkpt lat="50.24738" lon="3.63205">
        <ele>124.15</ele>
        <time>2014-12-11T10:45:32Z</time>
      </trkpt>
      <trkpt lat="50.24649" lon="3.63249">
        <ele>115.01</ele>
        <time>2014-12-11T10:47:01Z</time>
      </trkpt>
      <trkpt lat="50.24583" lon="3.63328">
        <ele>122.22</ele>
        <time>2014-12-11T10:48:56Z</time>
      </trkpt>
      <trkpt lat="50.24578" lon="3.63449">
        <ele>126.55</ele>
        <time>2014-12-11T10:50:45Z</time>
      </trkpt>
      <trkpt lat="50.24597" lon="3.63589">
        <ele>123.67</ele>
        <time>2014-12-11T10:52:21Z</time>
      </trkpt>
      <trkpt lat="50.24642" lon="3.63687">
        <ele>122.71</ele>
        <time>2014-12-11T11:00:04Z</time>
      </trkpt>
      <trkpt lat="50.24725" lon="3.63762">
        <ele>117.9</ele>
        <time>2014-12-11T11:03:14Z</time>
      </trkpt>
      <trkpt lat="50.24775" lon="3.63896">
        <ele>114.05</ele>
        <time>2014-12-11T11:05:16Z</time>
      </trkpt>
      <trkpt lat="50.24822" lon="3.64044">
        <ele>119.34</ele>
        <time>2014-12-11T11:06:51Z</time>
      </trkpt>
      <trkpt lat="50.24884" lon="3.64183">
        <ele>116.46</ele>
        <time>2014-12-11T11:08:26Z</time>
      </trkpt>
      <trkpt lat="50.2493" lon="3.64336">
        <ele>114.53</ele>
        <time>2014-12-11T11:09:58Z</time>
      </trkpt>
      <trkpt lat="50.24997" lon="3.64461">
        <ele>123.67</ele>
        <time>2014-12-11T11:11:49Z</time>
      </trkpt>
      <trkpt lat="50.25011" lon="3.64469">
        <ele>125.11</ele>
        <time>2014-12-11T11:15:43Z</time>
      </trkpt>
    </trkseg>
  </trk>
</gpx>